sensor_id;sensor_type;location;lat;lon;timestamp;pressure;altitude;pressure_sealevel;temperature;humidity
20015;BME280;61787;42.022;23.078;2024-01-11T00:00:50;97899.47;;;-0.71;59.54
20015;BME280;61787;42.022;23.078;2024-01-11T00:01:52;97896.47;;;-0.70;59.42
20015;BME280;61787;42.022;23.078;2024-01-11T00:02:53;97898.25;;;-0.65;59.46
20015;BME280;61787;42.022;23.078;2024-01-11T00:03:55;97891.00;;;-0.65;59.37
20015;BME280;61787;42.022;23.078;2024-01-11T00:04:57;97885.03;;;-0.62;59.04
20015;BME280;61787;42.022;23.078;2024-01-11T00:06:00;97886.34;;;-0.59;59.41
20015;BME280;61787;42.022;23.078;2024-01-11T00:07:02;97889.50;;;-0.57;58.98
20015;BME280;61787;42.022;23.078;2024-01-11T00:08:04;97889.19;;;-0.55;59.24
20015;BME280;61787;42.022;23.078;2024-01-11T00:09:06;97888.09;;;-0.54;59.03
20015;BME280;61787;42.022;23.078;2024-01-11T00:10:07;97879.75;;;-0.53;59.22
20015;BME280;61787;42.022;23.078;2024-01-11T00:11:10;97883.69;;;-0.50;58.90
20015;BME280;61787;42.022;23.078;2024-01-11T00:12:11;97885.28;;;-0.49;58.83
20015;BME280;61787;42.022;23.078;2024-01-11T00:13:13;97887.19;;;-0.50;58.75
20015;BME280;61787;42.022;23.078;2024-01-11T00:14:15;97885.28;;;-0.49;58.53
20015;BME280;61787;42.022;23.078;2024-01-11T00:15:16;97883.09;;;-0.47;58.43
20015;BME280;61787;42.022;23.078;2024-01-11T00:16:18;97881.72;;;-0.45;58.39
20015;BME280;61787;42.022;23.078;2024-01-11T00:17:20;97878.69;;;-0.43;58.41
20015;BME280;61787;42.022;23.078;2024-01-11T00:18:21;97885.66;;;-0.42;57.97
20015;BME280;61787;42.022;23.078;2024-01-11T00:19:23;97884.88;;;-0.43;58.05
20015;BME280;61787;42.022;23.078;2024-01-11T00:20:25;97877.63;;;-0.42;58.01
20015;BME280;61787;42.022;23.078;2024-01-11T00:21:27;97879.50;;;-0.43;58.01
20015;BME280;61787;42.022;23.078;2024-01-11T00:22:29;97882.97;;;-0.42;58.20
20015;BME280;61787;42.022;23.078;2024-01-11T00:23:30;97880.00;;;-0.41;58.00
20015;BME280;61787;42.022;23.078;2024-01-11T00:24:33;97876.22;;;-0.40;57.90
20015;BME280;61787;42.022;23.078;2024-01-11T00:25:40;97872.75;;;-0.40;57.98
20015;BME280;61787;42.022;23.078;2024-01-11T00:26:41;97879.69;;;-0.39;58.10
20015;BME280;61787;42.022;23.078;2024-01-11T00:27:43;97875.91;;;-0.38;57.92
20015;BME280;61787;42.022;23.078;2024-01-11T00:28:45;97882.38;;;-0.39;58.08
20015;BME280;61787;42.022;23.078;2024-01-11T00:29:46;97880.97;;;-0.36;57.61
20015;BME280;61787;42.022;23.078;2024-01-11T00:30:48;97879.06;;;-0.36;57.86
20015;BME280;61787;42.022;23.078;2024-01-11T00:31:50;97884.44;;;-0.36;57.62
20015;BME280;61787;42.022;23.078;2024-01-11T00:32:51;97872.31;;;-0.33;57.48
20015;BME280;61787;42.022;23.078;2024-01-11T00:33:53;97881.63;;;-0.31;57.56
20015;BME280;61787;42.022;23.078;2024-01-11T00:34:55;97881.63;;;-0.31;57.48
20015;BME280;61787;42.022;23.078;2024-01-11T00:35:58;97876.75;;;-0.29;57.54
20015;BME280;61787;42.022;23.078;2024-01-11T00:37:00;97883.22;;;-0.30;57.46
20015;BME280;61787;42.022;23.078;2024-01-11T00:38:01;97874.88;;;-0.28;57.40
20015;BME280;61787;42.022;23.078;2024-01-11T00:39:03;97881.31;;;-0.29;57.44
20015;BME280;61787;42.022;23.078;2024-01-11T00:40:05;97882.75;;;-0.32;57.66
20015;BME280;61787;42.022;23.078;2024-01-11T00:41:07;97884.59;;;-0.32;57.48
20015;BME280;61787;42.022;23.078;2024-01-11T00:42:09;97880.66;;;-0.35;57.82
20015;BME280;61787;42.022;23.078;2024-01-11T00:43:10;97876.91;;;-0.34;57.51
20015;BME280;61787;42.022;23.078;2024-01-11T00:44:12;97875.91;;;-0.38;57.42
20015;BME280;61787;42.022;23.078;2024-01-11T00:45:14;97875.41;;;-0.40;57.59
20015;BME280;61787;42.022;23.078;2024-01-11T00:46:15;97878.41;;;-0.42;57.74
20015;BME280;61787;42.022;23.078;2024-01-11T00:47:17;97873.53;;;-0.40;57.50
20015;BME280;61787;42.022;23.078;2024-01-11T00:48:19;97883.47;;;-0.40;56.94
20015;BME280;61787;42.022;23.078;2024-01-11T00:49:21;97878.09;;;-0.40;57.05
20015;BME280;61787;42.022;23.078;2024-01-11T00:50:22;97878.41;;;-0.42;57.10
20015;BME280;61787;42.022;23.078;2024-01-11T00:51:24;97882.97;;;-0.42;56.90
20015;BME280;61787;42.022;23.078;2024-01-11T00:52:26;97879.22;;;-0.41;56.53
20015;BME280;61787;42.022;23.078;2024-01-11T00:53:27;97873.34;;;-0.43;56.52
20015;BME280;61787;42.022;23.078;2024-01-11T00:54:32;97873.69;;;-0.45;56.35
20015;BME280;61787;42.022;23.078;2024-01-11T00:55:34;97873.97;;;-0.46;56.73
20015;BME280;61787;42.022;23.078;2024-01-11T00:56:35;97875.06;;;-0.47;56.54
20015;BME280;61787;42.022;23.078;2024-01-11T00:57:37;97870.00;;;-0.49;56.51
20015;BME280;61787;42.022;23.078;2024-01-11T00:58:39;97874.88;;;-0.51;56.89
20015;BME280;61787;42.022;23.078;2024-01-11T00:59:40;97876.78;;;-0.51;56.82
20015;BME280;61787;42.022;23.078;2024-01-11T01:00:42;97871.72;;;-0.53;57.19
20015;BME280;61787;42.022;23.078;2024-01-11T01:01:48;97880.03;;;-0.54;57.05
20015;BME280;61787;42.022;23.078;2024-01-11T01:02:50;97874.03;;;-0.60;57.16
20015;BME280;61787;42.022;23.078;2024-01-11T01:03:52;97875.25;;;-0.66;57.54
20015;BME280;61787;42.022;23.078;2024-01-11T01:04:54;97872.06;;;-0.68;57.34
20015;BME280;61787;42.022;23.078;2024-01-11T01:05:55;97874.25;;;-0.70;57.59
20015;BME280;61787;42.022;23.078;2024-01-11T01:06:57;97870.00;;;-0.71;57.50
20015;BME280;61787;42.022;23.078;2024-01-11T01:07:59;97868.09;;;-0.71;57.43
20015;BME280;61787;42.022;23.078;2024-01-11T01:09:01;97869.34;;;-0.77;57.48
20015;BME280;61787;42.022;23.078;2024-01-11T01:10:02;97875.88;;;-0.83;57.53
20015;BME280;61787;42.022;23.078;2024-01-11T01:11:04;97871.63;;;-0.84;57.49
20015;BME280;61787;42.022;23.078;2024-01-11T01:12:06;97874.59;;;-0.86;57.42
20015;BME280;61787;42.022;23.078;2024-01-11T01:13:08;97878.06;;;-0.85;57.66
20015;BME280;61787;42.022;23.078;2024-01-11T01:14:09;97874.31;;;-0.84;57.63
20015;BME280;61787;42.022;23.078;2024-01-11T01:15:11;97869.94;;;-0.80;57.43
20015;BME280;61787;42.022;23.078;2024-01-11T01:16:13;97871.69;;;-0.75;57.53
20015;BME280;61787;42.022;23.078;2024-01-11T01:17:15;97867.63;;;-0.73;57.66
20015;BME280;61787;42.022;23.078;2024-01-11T01:18:17;97875.06;;;-0.70;57.26
20015;BME280;61787;42.022;23.078;2024-01-11T01:19:19;97866.09;;;-0.65;57.39
20015;BME280;61787;42.022;23.078;2024-01-11T01:20:22;97863.25;;;-0.69;57.41
20015;BME280;61787;42.022;23.078;2024-01-11T01:21:24;97868.59;;;-0.69;57.41
20015;BME280;61787;42.022;23.078;2024-01-11T01:22:25;97865.91;;;-0.69;57.21
20015;BME280;61787;42.022;23.078;2024-01-11T01:23:27;97865.91;;;-0.69;57.21
20015;BME280;61787;42.022;23.078;2024-01-11T01:24:28;97862.47;;;-0.69;57.31
20015;BME280;61787;42.022;23.078;2024-01-11T01:25:32;97860.56;;;-0.69;57.13
20015;BME280;61787;42.022;23.078;2024-01-11T01:26:36;97860.25;;;-0.67;57.32
20015;BME280;61787;42.022;23.078;2024-01-11T01:27:38;97852.03;;;-0.71;57.06
20015;BME280;61787;42.022;23.078;2024-01-11T01:28:40;97850.25;;;-0.75;57.51
20015;BME280;61787;42.022;23.078;2024-01-11T01:29:41;97855.94;;;-0.77;57.49
20015;BME280;61787;42.022;23.078;2024-01-11T01:30:43;97851.47;;;-0.82;57.60
20015;BME280;61787;42.022;23.078;2024-01-11T01:31:44;97853.38;;;-0.82;57.49
20015;BME280;61787;42.022;23.078;2024-01-11T01:32:47;97848.03;;;-0.82;57.74
20015;BME280;61787;42.022;23.078;2024-01-11T01:33:49;97846.91;;;-0.81;57.69
20015;BME280;61787;42.022;23.078;2024-01-11T01:34:50;97845.84;;;-0.80;57.87
20015;BME280;61787;42.022;23.078;2024-01-11T01:35:52;97844.72;;;-0.79;57.58
20015;BME280;61787;42.022;23.078;2024-01-11T01:36:54;97844.41;;;-0.78;57.64
20015;BME280;61787;42.022;23.078;2024-01-11T01:37:55;97849.47;;;-0.76;57.60
20015;BME280;61787;42.022;23.078;2024-01-11T01:38:57;97844.91;;;-0.75;57.42
20015;BME280;61787;42.022;23.078;2024-01-11T01:39:59;97845.09;;;-0.72;57.56
20015;BME280;61787;42.022;23.078;2024-01-11T01:41:00;97847.47;;;-0.70;57.63
20015;BME280;61787;42.022;23.078;2024-01-11T01:42:02;97850.97;;;-0.70;57.45
20015;BME280;61787;42.022;23.078;2024-01-11T01:43:07;97847.94;;;-0.68;57.24
20015;BME280;61787;42.022;23.078;2024-01-11T01:44:12;97841.50;;;-0.67;57.21
20015;BME280;61787;42.022;23.078;2024-01-11T01:45:15;97842.28;;;-0.67;57.16
20015;BME280;61787;42.022;23.078;2024-01-11T01:46:23;97844.97;;;-0.67;57.29
20015;BME280;61787;42.022;23.078;2024-01-11T01:47:28;97839.63;;;-0.67;57.36
20015;BME280;61787;42.022;23.078;2024-01-11T01:48:30;97835.38;;;-0.68;56.81
20015;BME280;61787;42.022;23.078;2024-01-11T01:49:33;97838.06;;;-0.68;57.07
20015;BME280;61787;42.022;23.078;2024-01-11T01:50:35;97833.19;;;-0.66;56.97
20015;BME280;61787;42.022;23.078;2024-01-11T01:51:37;97832.88;;;-0.64;56.87
20015;BME280;61787;42.022;23.078;2024-01-11T01:52:40;97835.56;;;-0.64;57.19
20015;BME280;61787;42.022;23.078;2024-01-11T01:53:45;97837.13;;;-0.63;57.05
20015;BME280;61787;42.022;23.078;2024-01-11T01:54:47;97833.97;;;-0.65;56.73
20015;BME280;61787;42.022;23.078;2024-01-11T01:55:50;97832.06;;;-0.65;56.86
20015;BME280;61787;42.022;23.078;2024-01-11T01:56:54;97841.22;;;-0.66;56.87
20015;BME280;61787;42.022;23.078;2024-01-11T01:57:56;97837.75;;;-0.66;57.01
20015;BME280;61787;42.022;23.078;2024-01-11T01:59:00;97838.53;;;-0.66;57.10
20015;BME280;61787;42.022;23.078;2024-01-11T02:00:03;97833.66;;;-0.64;56.81
20015;BME280;61787;42.022;23.078;2024-01-11T02:01:05;97837.44;;;-0.65;56.86
20015;BME280;61787;42.022;23.078;2024-01-11T02:02:12;97831.59;;;-0.67;56.90
20015;BME280;61787;42.022;23.078;2024-01-11T02:03:14;97830.31;;;-0.69;57.06
20015;BME280;61787;42.022;23.078;2024-01-11T02:04:16;97829.34;;;-0.73;56.88
20015;BME280;61787;42.022;23.078;2024-01-11T02:05:18;97825.38;;;-0.76;57.11
20015;BME280;61787;42.022;23.078;2024-01-11T02:06:23;97831.03;;;-0.78;57.19
20015;BME280;61787;42.022;23.078;2024-01-11T02:07:26;97825.38;;;-0.76;57.08
20015;BME280;61787;42.022;23.078;2024-01-11T02:08:29;97824.59;;;-0.77;56.88
20015;BME280;61787;42.022;23.078;2024-01-11T02:09:32;97829.88;;;-0.85;57.42
20015;BME280;61787;42.022;23.078;2024-01-11T02:10:34;97829.31;;;-0.96;57.34
20015;BME280;61787;42.022;23.078;2024-01-11T02:11:41;97832.50;;;-1.08;57.42
20015;BME280;61787;42.022;23.078;2024-01-11T02:12:43;97832.38;;;-1.25;58.07
20015;BME280;61787;42.022;23.078;2024-01-11T02:13:44;97832.59;;;-1.36;58.65
20015;BME280;61787;42.022;23.078;2024-01-11T02:14:46;97832.41;;;-1.53;58.95
20015;BME280;61787;42.022;23.078;2024-01-11T02:15:48;97827.84;;;-1.66;59.44
20015;BME280;61787;42.022;23.078;2024-01-11T02:16:50;97828.06;;;-1.77;60.08
20015;BME280;61787;42.022;23.078;2024-01-11T02:17:51;97823.19;;;-1.88;60.44
20015;BME280;61787;42.022;23.078;2024-01-11T02:18:53;97821.03;;;-2.00;61.23
20015;BME280;61787;42.022;23.078;2024-01-11T02:19:55;97828.22;;;-2.15;61.47
20015;BME280;61787;42.022;23.078;2024-01-11T02:20:57;97825.91;;;-2.35;62.43
20015;BME280;61787;42.022;23.078;2024-01-11T02:22:01;97828.84;;;-2.51;63.00
20015;BME280;61787;42.022;23.078;2024-01-11T02:23:06;97823.44;;;-2.64;63.01
20015;BME280;61787;42.022;23.078;2024-01-11T02:24:09;97827.22;;;-2.65;63.01
20015;BME280;61787;42.022;23.078;2024-01-11T02:25:11;97837.16;;;-2.71;63.52
20015;BME280;61787;42.022;23.078;2024-01-11T02:26:15;97815.59;;;-2.75;63.31
20015;BME280;61787;42.022;23.078;2024-01-11T02:27:17;97821.53;;;-2.78;63.65
20015;BME280;61787;42.022;23.078;2024-01-11T02:28:19;97822.97;;;-2.85;63.82
20015;BME280;61787;42.022;23.078;2024-01-11T02:29:21;97818.00;;;-2.92;64.17
20015;BME280;61787;42.022;23.078;2024-01-11T02:30:22;97826.38;;;-2.99;64.29
20015;BME280;61787;42.022;23.078;2024-01-11T02:31:24;97820.81;;;-3.02;64.75
20015;BME280;61787;42.022;23.078;2024-01-11T02:32:26;97821.63;;;-3.02;64.79
20015;BME280;61787;42.022;23.078;2024-01-11T02:33:28;97829.69;;;-3.07;64.71
20015;BME280;61787;42.022;23.078;2024-01-11T02:34:30;97825.28;;;-3.17;65.28
20015;BME280;61787;42.022;23.078;2024-01-11T02:35:33;97823.47;;;-3.21;65.55
20015;BME280;61787;42.022;23.078;2024-01-11T02:36:35;97822.97;;;-3.23;65.48
20015;BME280;61787;42.022;23.078;2024-01-11T02:37:37;97821.84;;;-3.17;65.49
20015;BME280;61787;42.022;23.078;2024-01-11T02:38:41;97828.91;;;-3.08;65.49
20015;BME280;61787;42.022;23.078;2024-01-11T02:39:43;97824.78;;;-3.00;65.48
20015;BME280;61787;42.022;23.078;2024-01-11T02:40:45;97827.59;;;-2.91;65.10
20015;BME280;61787;42.022;23.078;2024-01-11T02:41:49;97828.50;;;-2.82;65.25
20015;BME280;61787;42.022;23.078;2024-01-11T02:42:51;97829.75;;;-2.74;65.20
20015;BME280;61787;42.022;23.078;2024-01-11T02:43:53;97821.34;;;-2.67;64.90
20015;BME280;61787;42.022;23.078;2024-01-11T02:44:55;97823.94;;;-2.62;64.84
20015;BME280;61787;42.022;23.078;2024-01-11T02:45:57;97829.69;;;-2.55;64.32
20015;BME280;61787;42.022;23.078;2024-01-11T02:47:00;97826.38;;;-2.47;64.13
20015;BME280;61787;42.022;23.078;2024-01-11T02:48:02;97824.00;;;-2.48;63.24
20015;BME280;61787;42.022;23.078;2024-01-11T02:49:04;97822.09;;;-2.48;63.04
20015;BME280;61787;42.022;23.078;2024-01-11T02:50:06;97827.66;;;-2.44;63.20
20015;BME280;61787;42.022;23.078;2024-01-11T02:51:13;97824.63;;;-2.38;63.02
20015;BME280;61787;42.022;23.078;2024-01-11T02:52:15;97824.53;;;-2.33;63.03
20015;BME280;61787;42.022;23.078;2024-01-11T02:53:16;97827.41;;;-2.29;62.65
20015;BME280;61787;42.022;23.078;2024-01-11T02:54:18;97828.88;;;-2.23;62.79
20015;BME280;61787;42.022;23.078;2024-01-11T02:55:20;97828.03;;;-2.18;62.77
20015;BME280;61787;42.022;23.078;2024-01-11T02:56:21;97822.88;;;-2.15;62.41
20015;BME280;61787;42.022;23.078;2024-01-11T02:57:23;97831.59;;;-2.09;62.10
20015;BME280;61787;42.022;23.078;2024-01-11T02:58:25;97820.03;;;-2.04;61.80
20015;BME280;61787;42.022;23.078;2024-01-11T02:59:26;97820.31;;;-2.06;61.65
20015;BME280;61787;42.022;23.078;2024-01-11T03:00:28;97820.69;;;-2.13;61.67
20015;BME280;61787;42.022;23.078;2024-01-11T03:01:30;97816.16;;;-2.26;61.83
20015;BME280;61787;42.022;23.078;2024-01-11T03:02:31;97821.16;;;-2.24;61.79
20015;BME280;61787;42.022;23.078;2024-01-11T03:03:33;97824.25;;;-2.31;61.50
20015;BME280;61787;42.022;23.078;2024-01-11T03:04:35;97827.00;;;-2.36;61.82
20015;BME280;61787;42.022;23.078;2024-01-11T03:05:36;97821.31;;;-2.48;62.18
20015;BME280;61787;42.022;23.078;2024-01-11T03:06:38;97824.84;;;-2.53;62.16
20015;BME280;61787;42.022;23.078;2024-01-11T03:07:40;97824.34;;;-2.55;62.12
20015;BME280;61787;42.022;23.078;2024-01-11T03:08:41;97824.06;;;-2.54;62.28
20015;BME280;61787;42.022;23.078;2024-01-11T03:09:43;97827.25;;;-2.52;62.24
20015;BME280;61787;42.022;23.078;2024-01-11T03:10:45;97828.47;;;-2.44;62.69
20015;BME280;61787;42.022;23.078;2024-01-11T03:11:47;97822.22;;;-2.39;62.16
20015;BME280;61787;42.022;23.078;2024-01-11T03:12:48;97822.16;;;-2.34;61.96
20015;BME280;61787;42.022;23.078;2024-01-11T03:13:50;97819.41;;;-2.29;61.98
20015;BME280;61787;42.022;23.078;2024-01-11T03:14:52;97825.72;;;-2.25;62.00
20015;BME280;61787;42.022;23.078;2024-01-11T03:15:54;97825.63;;;-2.20;61.70
20015;BME280;61787;42.022;23.078;2024-01-11T03:16:55;97819.72;;;-2.17;61.35
20015;BME280;61787;42.022;23.078;2024-01-11T03:17:57;97820.22;;;-2.15;61.38
20015;BME280;61787;42.022;23.078;2024-01-11T03:18:59;97819.91;;;-2.13;61.26
20015;BME280;61787;42.022;23.078;2024-01-11T03:20:01;97824.16;;;-2.12;61.26
20015;BME280;61787;42.022;23.078;2024-01-11T03:21:05;97821.41;;;-2.07;61.31
20015;BME280;61787;42.022;23.078;2024-01-11T03:22:06;97820.63;;;-2.07;61.00
20015;BME280;61787;42.022;23.078;2024-01-11T03:23:08;97814.16;;;-2.06;60.72
20015;BME280;61787;42.022;23.078;2024-01-11T03:24:10;97813.09;;;-2.05;60.71
20015;BME280;61787;42.022;23.078;2024-01-11T03:25:12;97812.81;;;-2.04;60.58
20015;BME280;61787;42.022;23.078;2024-01-11T03:26:15;97807.16;;;-2.02;60.46
20015;BME280;61787;42.022;23.078;2024-01-11T03:27:17;97808.72;;;-2.01;60.45
20015;BME280;61787;42.022;23.078;2024-01-11T03:28:19;97804.97;;;-2.00;60.86
20015;BME280;61787;42.022;23.078;2024-01-11T03:29:21;97812.63;;;-1.94;60.52
20015;BME280;61787;42.022;23.078;2024-01-11T03:30:22;97817.16;;;-1.94;60.34
20015;BME280;61787;42.022;23.078;2024-01-11T03:31:24;97809.63;;;-1.92;60.13
20015;BME280;61787;42.022;23.078;2024-01-11T03:32:26;97816.56;;;-1.91;60.30
20015;BME280;61787;42.022;23.078;2024-01-11T03:33:27;97814.38;;;-1.89;60.50
20015;BME280;61787;42.022;23.078;2024-01-11T03:34:29;97809.25;;;-1.85;60.40
20015;BME280;61787;42.022;23.078;2024-01-11T03:35:31;97805.19;;;-1.83;60.20
20015;BME280;61787;42.022;23.078;2024-01-11T03:36:33;97808.84;;;-1.79;60.35
20015;BME280;61787;42.022;23.078;2024-01-11T03:37:35;97806.66;;;-1.77;60.25
20015;BME280;61787;42.022;23.078;2024-01-11T03:38:37;97809.34;;;-1.77;60.31
20015;BME280;61787;42.022;23.078;2024-01-11T03:39:39;97801.31;;;-1.77;60.15
20015;BME280;61787;42.022;23.078;2024-01-11T03:40:40;97803.41;;;-1.74;60.02
20015;BME280;61787;42.022;23.078;2024-01-11T03:41:45;97804.97;;;-1.73;59.83
20015;BME280;61787;42.022;23.078;2024-01-11T03:42:47;97798.84;;;-1.73;59.85
20015;BME280;61787;42.022;23.078;2024-01-11T03:43:49;97801.50;;;-1.73;59.82
20015;BME280;61787;42.022;23.078;2024-01-11T03:44:51;97798.94;;;-1.78;59.87
20015;BME280;61787;42.022;23.078;2024-01-11T03:45:53;97797.38;;;-1.79;59.78
20015;BME280;61787;42.022;23.078;2024-01-11T03:46:54;97795.00;;;-1.81;59.44
20015;BME280;61787;42.022;23.078;2024-01-11T03:47:56;97795.97;;;-1.77;59.20
20015;BME280;61787;42.022;23.078;2024-01-11T03:48:58;97796.16;;;-1.73;59.23
20015;BME280;61787;42.022;23.078;2024-01-11T03:50:01;97797.47;;;-1.70;59.22
20015;BME280;61787;42.022;23.078;2024-01-11T03:51:03;97797.97;;;-1.68;58.98
20015;BME280;61787;42.022;23.078;2024-01-11T03:52:05;97792.81;;;-1.65;59.05
20015;BME280;61787;42.022;23.078;2024-01-11T03:53:07;97793.28;;;-1.63;58.48
20015;BME280;61787;42.022;23.078;2024-01-11T03:54:09;97792.38;;;-1.58;58.51
20015;BME280;61787;42.022;23.078;2024-01-11T03:55:11;97798.53;;;-1.58;58.36
20015;BME280;61787;42.022;23.078;2024-01-11T03:56:13;97796.06;;;-1.54;58.27
20015;BME280;61787;42.022;23.078;2024-01-11T03:57:15;97790.09;;;-1.51;58.43
20015;BME280;61787;42.022;23.078;2024-01-11T03:58:16;97792.78;;;-1.51;58.12
20015;BME280;61787;42.022;23.078;2024-01-11T03:59:18;97783.19;;;-1.52;58.23
20015;BME280;61787;42.022;23.078;2024-01-11T04:00:19;97785.06;;;-1.52;58.15
20015;BME280;61787;42.022;23.078;2024-01-11T04:01:21;97793.88;;;-1.52;58.04
20015;BME280;61787;42.022;23.078;2024-01-11T04:02:23;97782.41;;;-1.52;58.30
20015;BME280;61787;42.022;23.078;2024-01-11T04:03:25;97779.41;;;-1.51;57.52
20015;BME280;61787;42.022;23.078;2024-01-11T04:04:26;97783.66;;;-1.50;57.49
20015;BME280;61787;42.022;23.078;2024-01-11T04:05:28;97779.09;;;-1.49;57.70
20015;BME280;61787;42.022;23.078;2024-01-11T04:06:30;97779.09;;;-1.49;57.63
20015;BME280;61787;42.022;23.078;2024-01-11T04:07:31;97772.97;;;-1.50;57.47
20015;BME280;61787;42.022;23.078;2024-01-11T04:08:33;97785.75;;;-1.47;57.65
20015;BME280;61787;42.022;23.078;2024-01-11T04:09:37;97781.97;;;-1.46;57.28
20015;BME280;61787;42.022;23.078;2024-01-11T04:10:39;97773.47;;;-1.48;57.20
20015;BME280;61787;42.022;23.078;2024-01-11T04:11:41;97779.91;;;-1.49;57.45
20015;BME280;61787;42.022;23.078;2024-01-11T04:12:43;97776.13;;;-1.48;57.35
20015;BME280;61787;42.022;23.078;2024-01-11T04:13:44;97775.06;;;-1.47;57.17
20015;BME280;61787;42.022;23.078;2024-01-11T04:14:46;97771.38;;;-1.51;57.00
20015;BME280;61787;42.022;23.078;2024-01-11T04:15:47;97773.56;;;-1.53;57.24
20015;BME280;61787;42.022;23.078;2024-01-11T04:16:49;97774.06;;;-1.51;56.96
20015;BME280;61787;42.022;23.078;2024-01-11T04:17:51;97768.22;;;-1.53;56.96
20015;BME280;61787;42.022;23.078;2024-01-11T04:18:53;97770.41;;;-1.55;57.35
20015;BME280;61787;42.022;23.078;2024-01-11T04:19:54;97766.44;;;-1.58;57.39
20015;BME280;61787;42.022;23.078;2024-01-11T04:20:56;97771.63;;;-1.61;57.23
20015;BME280;61787;42.022;23.078;2024-01-11T04:21:58;97770.41;;;-1.69;57.23
20015;BME280;61787;42.022;23.078;2024-01-11T04:23:00;97772.88;;;-1.73;56.99
20015;BME280;61787;42.022;23.078;2024-01-11T04:24:01;97770.31;;;-1.78;57.20
20015;BME280;61787;42.022;23.078;2024-01-11T04:25:03;97776.28;;;-1.81;57.50
20015;BME280;61787;42.022;23.078;2024-01-11T04:26:05;97771.22;;;-1.82;57.50
20015;BME280;61787;42.022;23.078;2024-01-11T04:27:07;97774.69;;;-1.82;57.49
20015;BME280;61787;42.022;23.078;2024-01-11T04:28:08;97777.66;;;-1.83;57.50
20015;BME280;61787;42.022;23.078;2024-01-11T04:29:11;97777.34;;;-1.82;57.28
20015;BME280;61787;42.022;23.078;2024-01-11T04:30:13;97775.59;;;-1.86;57.43
20015;BME280;61787;42.022;23.078;2024-01-11T04:31:15;97775.59;;;-2.00;57.31
20015;BME280;61787;42.022;23.078;2024-01-11T04:32:18;97776.16;;;-2.17;57.37
20015;BME280;61787;42.022;23.078;2024-01-11T04:33:20;97768.44;;;-2.33;57.98
20015;BME280;61787;42.022;23.078;2024-01-11T04:34:22;97779.19;;;-2.52;58.20
20015;BME280;61787;42.022;23.078;2024-01-11T04:35:24;97771.53;;;-2.72;58.99
20015;BME280;61787;42.022;23.078;2024-01-11T04:36:25;97777.09;;;-2.88;59.87
20015;BME280;61787;42.022;23.078;2024-01-11T04:37:27;97775.09;;;-2.96;60.44
20015;BME280;61787;42.022;23.078;2024-01-11T04:38:28;97775.91;;;-3.14;60.78
20015;BME280;61787;42.022;23.078;2024-01-11T04:39:31;97779.03;;;-3.26;61.02
20015;BME280;61787;42.022;23.078;2024-01-11T04:40:32;97776.72;;;-3.33;61.27
20015;BME280;61787;42.022;23.078;2024-01-11T04:41:35;97775.72;;;-3.37;61.74
20015;BME280;61787;42.022;23.078;2024-01-11T04:42:39;97774.50;;;-3.44;61.83
20015;BME280;61787;42.022;23.078;2024-01-11T04:43:44;97774.28;;;-3.48;62.29
20015;BME280;61787;42.022;23.078;2024-01-11T04:44:46;97779.72;;;-3.58;62.50
20015;BME280;61787;42.022;23.078;2024-01-11T04:45:48;97780.81;;;-3.59;62.92
20015;BME280;61787;42.022;23.078;2024-01-11T04:46:50;97786.13;;;-3.59;63.09
20015;BME280;61787;42.022;23.078;2024-01-11T04:47:51;97784.19;;;-3.54;62.57
20015;BME280;61787;42.022;23.078;2024-01-11T04:48:53;97775.91;;;-3.52;62.46
20015;BME280;61787;42.022;23.078;2024-01-11T04:49:55;97772.97;;;-3.51;62.99
20015;BME280;61787;42.022;23.078;2024-01-11T04:50:57;97771.13;;;-3.55;62.79
20015;BME280;61787;42.022;23.078;2024-01-11T04:51:59;97773.09;;;-3.61;62.87
20015;BME280;61787;42.022;23.078;2024-01-11T04:53:00;97775.53;;;-3.65;63.21
20015;BME280;61787;42.022;23.078;2024-01-11T04:54:02;97784.91;;;-3.67;63.51
20015;BME280;61787;42.022;23.078;2024-01-11T04:55:04;97778.19;;;-3.65;63.44
20015;BME280;61787;42.022;23.078;2024-01-11T04:56:07;97775.53;;;-3.65;63.40
20015;BME280;61787;42.022;23.078;2024-01-11T04:57:09;97776.47;;;-3.74;63.64
20015;BME280;61787;42.022;23.078;2024-01-11T04:58:11;97780.56;;;-3.82;64.13
20015;BME280;61787;42.022;23.078;2024-01-11T04:59:12;97777.22;;;-3.93;64.15
20015;BME280;61787;42.022;23.078;2024-01-11T05:00:14;97770.31;;;-3.94;64.23
20015;BME280;61787;42.022;23.078;2024-01-11T05:01:17;97785.22;;;-3.93;64.32
20015;BME280;61787;42.022;23.078;2024-01-11T05:02:22;97782.34;;;-3.96;64.25
20015;BME280;61787;42.022;23.078;2024-01-11T05:03:24;97777.78;;;-3.96;64.36
20015;BME280;61787;42.022;23.078;2024-01-11T05:04:26;97779.66;;;-3.96;64.47
20015;BME280;61787;42.022;23.078;2024-01-11T05:05:27;97780.28;;;-4.05;64.90
20015;BME280;61787;42.022;23.078;2024-01-11T05:06:29;97781.94;;;-4.09;64.80
20015;BME280;61787;42.022;23.078;2024-01-11T05:07:31;97777.09;;;-4.07;65.05
20015;BME280;61787;42.022;23.078;2024-01-11T05:08:33;97778.75;;;-4.11;65.12
20015;BME280;61787;42.022;23.078;2024-01-11T05:09:35;97774.78;;;-4.13;65.55
20015;BME280;61787;42.022;23.078;2024-01-11T05:10:36;97780.63;;;-4.11;65.36
20015;BME280;61787;42.022;23.078;2024-01-11T05:11:38;97776.59;;;-4.09;65.58
20015;BME280;61787;42.022;23.078;2024-01-11T05:12:41;97776.91;;;-3.91;68.07
20015;BME280;61787;42.022;23.078;2024-01-11T05:13:42;97776.47;;;-3.74;67.79
20015;BME280;61787;42.022;23.078;2024-01-11T05:14:44;97773.47;;;-3.68;67.12
20015;BME280;61787;42.022;23.078;2024-01-11T05:15:46;97770.69;;;-3.62;66.71
20015;BME280;61787;42.022;23.078;2024-01-11T05:16:48;97764.53;;;-3.58;66.54
20015;BME280;61787;42.022;23.078;2024-01-11T05:17:50;97766.03;;;-3.52;66.23
20015;BME280;61787;42.022;23.078;2024-01-11T05:18:55;97771.81;;;-3.44;66.01
20015;BME280;61787;42.022;23.078;2024-01-11T05:19:57;97766.63;;;-3.36;65.73
20015;BME280;61787;42.022;23.078;2024-01-11T05:20:59;97763.59;;;-3.29;65.47
20015;BME280;61787;42.022;23.078;2024-01-11T05:22:02;97763.25;;;-3.22;65.41
20015;BME280;61787;42.022;23.078;2024-01-11T05:23:04;97764.72;;;-3.16;64.78
20015;BME280;61787;42.022;23.078;2024-01-11T05:24:06;97767.13;;;-3.15;64.90
20015;BME280;61787;42.022;23.078;2024-01-11T05:25:12;97756.16;;;-3.13;64.93